createdAt,value
2022-08-05T00:01:36.587Z,99932.78
2022-08-05T00:04:17.810Z,99921.06
2022-08-05T00:06:45.444Z,99917.66
2022-08-05T00:09:15.977Z,99918.66
2022-08-05T00:11:49.105Z,99912.78
2022-08-05T00:14:22.620Z,99923.19
2022-08-05T00:16:54.939Z,99918.94
2022-08-05T00:19:40.604Z,99914.03
2022-08-05T00:22:11.830Z,99916.81
2022-08-05T00:24:42.162Z,99912.94
2022-08-05T00:27:10.510Z,99916.00
2022-08-05T00:29:41.269Z,99907.25
2022-08-05T00:32:15.473Z,99915.88
2022-08-05T00:35:05.542Z,99911.53
2022-08-05T00:37:50.283Z,99914.31
2022-08-05T00:40:26.767Z,99912.91
2022-08-05T00:42:57.521Z,99918.53
2022-08-05T00:45:28.043Z,99916.91
2022-08-05T00:48:06.213Z,99910.19
2022-08-05T00:50:34.092Z,99915.63
2022-08-05T00:53:01.588Z,99904.25
2022-08-05T00:55:34.053Z,99900.41
2022-08-05T00:58:14.485Z,99908.28
2022-08-05T01:00:42.220Z,99916.28
2022-08-05T01:03:22.400Z,99904.25
2022-08-05T01:05:54.544Z,99910.59
2022-08-05T01:08:30.789Z,99908.78
2022-08-05T01:11:36.783Z,99910.41
2022-08-05T01:14:17.844Z,99902.50
2022-08-05T01:17:05.592Z,99904.00
2022-08-05T01:20:01.440Z,99906.66
2022-08-05T01:22:48.291Z,99903.16
2022-08-05T01:25:40.668Z,99892.63
2022-08-05T01:28:17.053Z,99901.56
2022-08-05T01:30:53.606Z,99893.28
2022-08-05T01:33:25.389Z,99885.28
2022-08-05T01:35:57.623Z,99886.16
2022-08-05T01:38:27.040Z,99880.84
2022-08-05T01:41:01.470Z,99882.44
2022-08-05T01:43:29.300Z,99885.22
2022-08-05T01:45:57.583Z,99884.84
2022-08-05T01:48:28.609Z,99884.97
2022-08-05T01:50:56.416Z,99887.50
2022-08-05T01:53:54.900Z,99886.53
2022-08-05T01:56:12.222Z,99879.53
2022-08-05T01:58:44.840Z,99882.59
2022-08-05T02:01:23.251Z,99877.69
2022-08-05T02:03:53.548Z,99883.41
2022-08-05T02:06:33.623Z,99891.13
2022-08-05T02:09:06.239Z,99892.75
2022-08-05T02:11:42.106Z,99878.69
2022-08-05T02:14:12.993Z,99876.25
2022-08-05T02:16:45.921Z,99872.94
2022-08-05T02:19:26.430Z,99866.75
2022-08-05T02:22:04.630Z,99877.69
2022-08-05T02:24:38.193Z,99873.59
2022-08-05T02:27:09.980Z,99880.59
2022-08-05T02:29:59.009Z,99874.72
2022-08-05T02:32:31.437Z,99868.97
2022-08-05T02:35:14.098Z,99873.53
2022-08-05T02:37:47.628Z,99876.28
2022-08-05T02:40:16.902Z,99872.88
2022-08-05T02:42:45.018Z,99873.25
2022-08-05T02:45:20.719Z,99866.53
2022-08-05T02:48:06.918Z,99861.69
2022-08-05T02:50:44.340Z,99865.59
2022-08-05T02:53:18.939Z,99867.59
2022-08-05T02:58:26.583Z,99861.63
2022-08-05T03:00:59.566Z,99848.00
2022-08-05T03:03:33.530Z,99851.78
2022-08-05T03:06:56.940Z,99860.84
2022-08-05T03:08:52.138Z,99857.91
2022-08-05T03:11:56.128Z,99859.13
2022-08-05T03:14:08.597Z,99854.38
2022-08-05T03:16:39.947Z,99854.97
2022-08-05T03:19:16.932Z,99854.09
2022-08-05T03:21:53.902Z,99865.75
2022-08-05T03:24:27.534Z,99859.84
2022-08-05T03:26:56.858Z,99860.91
2022-08-05T03:29:24.406Z,99854.47
2022-08-05T03:32:12.228Z,99849.59
2022-08-05T03:34:47.238Z,99856.19
2022-08-05T03:37:20.114Z,99861.84
2022-08-05T03:39:59.080Z,99852.69
2022-08-05T03:42:29.034Z,99856.94
2022-08-05T03:44:58.840Z,99855.38
2022-08-05T03:47:30.290Z,99857.94
2022-08-05T03:49:58.101Z,99866.06
2022-08-05T03:52:38.087Z,99865.66
2022-08-05T03:56:05.391Z,99866.69
2022-08-05T03:58:12.951Z,99868.66
2022-08-05T04:00:41.917Z,99870.22
2022-08-05T04:03:15.033Z,99864.06
2022-08-05T04:05:57.661Z,99870.28
2022-08-05T04:08:35.132Z,99874.34
2022-08-05T04:11:07.323Z,99867.47
2022-08-05T04:13:50.564Z,99873.00
2022-08-05T04:16:24.890Z,99866.25
2022-08-05T04:18:54.906Z,99863.59
2022-08-05T04:22:08.894Z,99867.28
2022-08-05T04:24:18.895Z,99863.69
2022-08-05T04:26:49.187Z,99869.09
2022-08-05T04:29:16.089Z,99874.06
2022-08-05T04:31:43.154Z,99871.50
2022-08-05T04:34:19.726Z,99874.22
2022-08-05T04:36:57.166Z,99871.06
2022-08-05T04:39:24.402Z,99870.34
2022-08-05T04:41:54.480Z,99867.22
2022-08-05T04:44:29.549Z,99865.53
2022-08-05T04:47:09.726Z,99862.28
2022-08-05T04:50:01.402Z,99852.72
2022-08-05T04:52:27.374Z,99855.25
2022-08-05T04:54:57.238Z,99860.91
2022-08-05T04:57:29.096Z,99849.94
2022-08-05T04:59:58.630Z,99848.41
2022-08-05T05:02:41.353Z,99856.31
2022-08-05T05:05:16.626Z,99849.66
2022-08-05T05:08:02.852Z,99853.88
2022-08-05T05:10:33.231Z,99854.06
2022-08-05T05:13:01.709Z,99856.66
2022-08-05T05:15:57.847Z,99854.88
2022-08-05T05:18:31.405Z,99849.16
2022-08-05T05:21:00.780Z,99857.31
2022-08-05T05:23:39.284Z,99849.53
2022-08-05T05:26:14.619Z,99855.66
2022-08-05T05:28:42.832Z,99847.00
2022-08-05T05:31:12.502Z,99852.66
2022-08-05T05:33:57.064Z,99849.53
2022-08-05T05:36:28.388Z,99852.56
2022-08-05T05:38:57.760Z,99849.06
2022-08-05T05:41:24.886Z,99852.38
2022-08-05T05:43:58.531Z,99852.91
2022-08-05T05:46:27.622Z,99841.81
2022-08-05T05:48:54.596Z,99848.16
2022-08-05T05:51:22.772Z,99844.25
2022-08-05T05:53:58.147Z,99853.72
2022-08-05T05:56:34.695Z,99857.81
2022-08-05T05:59:07.367Z,99858.50
2022-08-05T06:01:40.121Z,99847.13
2022-08-05T06:04:12.242Z,99852.75
2022-08-05T06:06:42.114Z,99847.25
2022-08-05T06:09:17.602Z,99847.69
2022-08-05T06:12:00.012Z,99856.53
2022-08-05T06:14:34.662Z,99856.69
2022-08-05T06:17:32.024Z,99855.63
2022-08-05T06:19:57.093Z,99857.22
2022-08-05T06:22:29.639Z,99858.28
2022-08-05T06:24:57.002Z,99852.22
2022-08-05T06:28:11.134Z,99847.50
2022-08-05T06:30:17.880Z,99850.06
2022-08-05T06:32:48.446Z,99846.28
2022-08-05T06:36:04.052Z,99846.31
2022-08-05T06:38:11.202Z,99840.94
2022-08-05T06:40:42.070Z,99834.88
2022-08-05T06:43:58.277Z,99838.72
2022-08-05T06:46:03.881Z,99831.09
2022-08-05T06:48:54.747Z,99831.69
2022-08-05T06:51:29.826Z,99830.16
2022-08-05T06:53:59.554Z,99824.94
2022-08-05T06:56:28.059Z,99826.66
2022-08-05T06:58:55.791Z,99829.91
2022-08-05T07:01:23.588Z,99833.22
2022-08-05T07:03:54.810Z,99827.69
2022-08-05T07:06:23.288Z,99831.50
2022-08-05T07:08:51.687Z,99817.53
2022-08-05T07:11:25.200Z,99817.94
2022-08-05T07:14:20.249Z,99812.59
2022-08-05T07:17:58.540Z,99805.53
2022-08-05T07:20:31.709Z,99817.41
2022-08-05T07:22:33.796Z,99807.22
2022-08-05T07:25:21.779Z,99820.06
2022-08-05T07:27:58.206Z,99813.69
2022-08-05T07:30:38.693Z,99818.94
2022-08-05T07:33:10.670Z,99817.50
2022-08-05T07:36:01.625Z,99813.97
2022-08-05T07:38:33.271Z,99811.72
2022-08-05T07:42:06.763Z,99822.16
2022-08-05T07:43:51.626Z,99806.31
2022-08-05T07:46:25.121Z,99818.06
2022-08-05T07:49:01.711Z,99820.44
2022-08-05T07:51:48.516Z,99808.97
2022-08-05T07:54:26.628Z,99810.66
2022-08-05T07:57:14.690Z,99812.06
2022-08-05T07:59:44.634Z,99820.41
2022-08-05T08:02:16.406Z,99818.16
2022-08-05T08:04:49.363Z,99816.31
2022-08-05T08:07:22.678Z,99808.22
2022-08-05T08:09:52.413Z,99805.91
2022-08-05T08:12:35.397Z,99815.22
2022-08-05T08:15:15.572Z,99812.88
2022-08-05T08:17:52.540Z,99807.44
2022-08-05T08:20:59.740Z,99808.28
2022-08-05T08:24:00.309Z,99803.34
2022-08-05T08:26:02.459Z,99804.69
2022-08-05T08:28:37.335Z,99797.84
2022-08-05T08:31:09.840Z,99796.13
2022-08-05T08:33:43.750Z,99795.94
2022-08-05T08:36:38.235Z,99800.16
2022-08-05T08:38:58.255Z,99795.06
2022-08-05T08:41:51.180Z,99796.78
2022-08-05T08:45:18.027Z,99806.50
2022-08-05T08:47:22.334Z,99799.88
2022-08-05T08:50:05.875Z,99798.66
2022-08-05T08:52:51.644Z,99791.47
2022-08-05T08:56:02.150Z,99779.91
2022-08-05T08:58:09.997Z,99797.16
2022-08-05T09:00:41.839Z,99785.22
2022-08-05T09:03:10.666Z,99786.28
2022-08-05T09:05:38.355Z,99775.41
2022-08-05T09:08:27.240Z,99784.28
2022-08-05T09:10:57.816Z,99786.47
2022-08-05T09:13:24.881Z,99782.50
2022-08-05T09:15:58.815Z,99785.25
2022-08-05T09:18:25.876Z,99782.56
2022-08-05T09:20:53.203Z,99776.13
2022-08-05T09:23:21.701Z,99777.75
2022-08-05T09:26:02.755Z,99764.59
2022-08-05T09:28:34.731Z,99766.53
2022-08-05T09:31:22.387Z,99768.03
2022-08-05T09:34:01.293Z,99763.38
2022-08-05T09:36:54.493Z,99758.31
2022-08-05T09:39:27.594Z,99757.06
2022-08-05T09:42:13.637Z,99759.13
2022-08-05T09:44:46.088Z,99754.22
2022-08-05T09:47:34.919Z,99738.03
2022-08-05T09:50:18.136Z,99742.59
2022-08-05T09:53:01.061Z,99748.72
2022-08-05T09:55:57.214Z,99750.00
2022-08-05T09:58:15.930Z,99747.78
2022-08-05T10:00:53.541Z,99740.47
2022-08-05T10:03:21.389Z,99738.69
2022-08-05T10:06:05.964Z,99739.97
2022-08-05T10:08:42.477Z,99739.31
2022-08-05T10:11:17.065Z,99732.47
2022-08-05T10:13:48.050Z,99726.38
2022-08-05T10:16:37.852Z,99730.28
2022-08-05T10:19:23.715Z,99720.63
2022-08-05T10:22:08.097Z,99714.19
2022-08-05T10:24:39.776Z,99708.88
2022-08-05T10:27:07.583Z,99719.28
2022-08-05T10:30:41.464Z,99710.78
2022-08-05T10:32:55.702Z,99706.47
2022-08-05T10:35:11.270Z,99709.34
2022-08-05T10:37:44.686Z,99702.94
2022-08-05T10:40:21.883Z,99693.97
2022-08-05T10:43:01.271Z,99696.28
2022-08-05T10:45:39.833Z,99693.28
2022-08-05T10:48:36.041Z,99691.47
2022-08-05T10:51:22.178Z,99691.84
2022-08-05T10:53:58.472Z,99693.88
2022-08-05T10:56:44.277Z,99692.72
2022-08-05T11:00:02.043Z,99683.09
2022-08-05T11:02:14.622Z,99690.72
2022-08-05T11:04:56.456Z,99695.09
2022-08-05T11:07:33.049Z,99680.53
2022-08-05T11:10:23.119Z,99685.41
2022-08-05T11:12:56.093Z,99676.03
2022-08-05T11:16:00.642Z,99677.38
2022-08-05T11:18:32.491Z,99673.16
2022-08-05T11:21:06.391Z,99658.84
2022-08-05T11:24:02.579Z,99654.31
2022-08-05T11:26:33.013Z,99659.34
2022-08-05T11:29:11.473Z,99656.66
2022-08-05T11:31:57.202Z,99663.44
2022-08-05T11:34:50.985Z,99663.59
2022-08-05T11:38:29.839Z,99652.44
2022-08-05T11:41:01.781Z,99652.25
2022-08-05T11:44:04.896Z,99643.81
2022-08-05T11:46:58.607Z,99642.63
2022-08-05T11:49:39.666Z,99640.13
2022-08-05T11:52:11.761Z,99644.47
2022-08-05T11:54:41.369Z,99644.47
2022-08-05T11:57:24.966Z,99640.38
2022-08-05T12:14:43.292Z,99623.44
2022-08-05T12:18:00.674Z,99621.03
2022-08-05T12:20:26.825Z,99617.63
2022-08-05T12:22:49.455Z,99621.66
2022-08-05T12:25:18.962Z,99615.13
2022-08-05T12:27:52.983Z,99602.13
2022-08-05T12:30:22.494Z,99613.63
2022-08-05T12:32:58.764Z,99604.84
2022-08-05T12:35:37.144Z,99608.97
2022-08-05T12:38:07.315Z,99616.75
2022-08-05T12:40:38.004Z,99606.13
2022-08-05T12:43:10.954Z,99610.50
2022-08-05T12:45:49.544Z,99612.66
2022-08-05T12:48:27.510Z,99602.00
2022-08-05T12:52:10.921Z,99617.09
2022-08-05T12:54:16.571Z,99609.75
2022-08-05T12:56:48.277Z,99605.69
2022-08-05T12:59:27.789Z,99608.03
2022-08-05T13:02:12.229Z,99595.56
2022-08-05T13:04:54.612Z,99605.19
2022-08-05T13:07:57.518Z,99603.66
2022-08-05T13:10:19.715Z,99599.59
2022-08-05T13:12:57.736Z,99594.34
2022-08-05T13:15:41.096Z,99596.81
2022-08-05T13:18:10.104Z,99596.88
2022-08-05T13:20:40.472Z,99581.22
2022-08-05T13:23:08.194Z,99587.44
2022-08-05T13:25:51.720Z,99577.78
2022-08-05T13:28:22.466Z,99583.22
2022-08-05T13:30:51.100Z,99583.00
2022-08-05T13:34:21.194Z,99581.56
2022-08-05T13:36:09.284Z,99580.53
2022-08-05T13:38:41.960Z,99579.38
2022-08-05T13:41:11.852Z,99571.81
2022-08-05T13:43:44.682Z,99578.22
2022-08-05T13:46:37.887Z,99574.81
2022-08-05T13:49:11.789Z,99566.50
2022-08-05T13:51:46.067Z,99563.41
2022-08-05T13:54:16.666Z,99574.81
2022-08-05T13:56:50.750Z,99556.56
2022-08-05T13:59:23.965Z,99564.84
2022-08-05T14:01:57.994Z,99564.53
2022-08-05T14:04:55.814Z,99562.81
2022-08-05T14:07:59.576Z,99562.19
2022-08-05T14:10:18.735Z,99559.06
2022-08-05T14:12:48.687Z,99563.31
2022-08-05T14:16:05.681Z,99555.00
2022-08-05T14:18:04.986Z,99543.03
2022-08-05T14:20:32.365Z,99555.84
2022-08-05T14:23:00.101Z,99544.91
2022-08-05T14:25:30.486Z,99545.19
2022-08-05T14:27:58.417Z,99552.94
2022-08-05T14:30:31.709Z,99548.00
2022-08-05T14:32:58.976Z,99548.31
2022-08-05T14:35:37.087Z,99552.97
2022-08-05T14:38:27.799Z,99546.31
2022-08-05T14:41:01.444Z,99550.88
2022-08-05T14:43:58.883Z,99552.94
2022-08-05T14:46:17.677Z,99547.47
2022-08-05T14:48:49.213Z,99541.06
2022-08-05T14:51:17.928Z,99536.31
2022-08-05T14:53:45.901Z,99547.41
2022-08-05T14:56:34.134Z,99537.53
2022-08-05T14:59:05.391Z,99535.16
2022-08-05T15:01:47.848Z,99537.66
2022-08-05T15:04:20.625Z,99538.47
2022-08-05T15:06:50.905Z,99543.88
2022-08-05T15:09:51.865Z,99540.66
2022-08-05T15:12:26.321Z,99537.13
2022-08-05T15:14:54.242Z,99534.31
2022-08-05T15:17:47.412Z,99531.13
2022-08-05T15:20:18.464Z,99533.63
2022-08-05T15:22:54.017Z,99532.56
2022-08-05T15:25:51.424Z,99535.94
2022-08-05T15:28:14.253Z,99520.72
2022-08-05T15:30:43.786Z,99521.38
2022-08-05T15:33:13.152Z,99523.75
2022-08-05T15:36:00.059Z,99527.94
2022-08-05T15:38:36.501Z,99531.59
2022-08-05T15:41:22.464Z,99523.25
2022-08-05T15:43:55.352Z,99517.19
2022-08-05T15:46:24.308Z,99522.09
2022-08-05T15:48:58.931Z,99531.84
2022-08-05T15:52:09.722Z,99518.09
2022-08-05T15:54:34.713Z,99517.59
2022-08-05T15:57:02.480Z,99512.59
2022-08-05T15:59:29.379Z,99514.53
2022-08-05T16:01:56.624Z,99508.66
2022-08-05T16:04:27.996Z,99508.91
2022-08-05T16:06:55.531Z,99503.25
2022-08-05T16:09:23.637Z,99496.47
2022-08-05T16:11:53.766Z,99506.59
2022-08-05T16:14:22.337Z,99513.31
2022-08-05T16:16:50.154Z,99518.94
2022-08-05T16:19:25.459Z,99530.72
2022-08-05T16:22:05.227Z,99516.81
2022-08-05T16:24:39.777Z,99514.16
2022-08-05T16:27:09.432Z,99517.00
2022-08-05T16:29:37.506Z,99515.06
2022-08-05T16:32:09.826Z,99503.78
2022-08-05T16:34:39.324Z,99509.56
2022-08-05T16:38:02.812Z,99510.28
2022-08-05T16:40:04.650Z,99504.75
2022-08-05T16:42:34.658Z,99507.91
2022-08-05T16:46:05.421Z,99500.44
2022-08-05T16:47:54.903Z,99513.94
2022-08-05T16:50:25.599Z,99523.94
2022-08-05T16:52:52.785Z,99538.56
2022-08-05T16:55:23.500Z,99544.88
2022-08-05T16:58:00.460Z,99555.25
2022-08-05T17:00:34.286Z,99567.31
2022-08-05T17:03:19.593Z,99576.44
2022-08-05T17:05:59.432Z,99573.38
2022-08-05T17:08:36.114Z,99580.41
2022-08-05T17:11:18.930Z,99571.88
2022-08-05T17:13:50.044Z,99579.13
2022-08-05T17:16:32.872Z,99591.03
2022-08-05T17:19:07.815Z,99603.22
2022-08-05T17:21:39.520Z,99597.19
2022-08-05T17:24:19.457Z,99604.63
2022-08-05T17:27:01.171Z,99616.72
2022-08-05T17:29:33.931Z,99639.19
2022-08-05T17:32:17.366Z,99668.22
2022-08-05T17:34:58.182Z,99688.78
2022-08-05T17:37:40.089Z,99714.22
2022-08-05T17:40:12.675Z,99711.13
2022-08-05T17:42:49.876Z,99725.38
2022-08-05T17:45:21.925Z,99729.69
2022-08-05T17:47:55.427Z,99743.34
2022-08-05T17:50:30.376Z,99764.19
2022-08-05T17:52:59.493Z,99769.72
2022-08-05T17:55:37.570Z,99762.91
2022-08-05T17:58:14.429Z,99754.31
2022-08-05T18:00:47.465Z,99741.09
2022-08-05T18:03:39.315Z,99715.44
2022-08-05T18:06:11.145Z,99700.66
2022-08-05T18:08:45.036Z,99673.66
2022-08-05T18:11:24.390Z,99663.59
2022-08-05T18:13:56.990Z,99672.41
2022-08-05T18:16:26.801Z,99636.50
2022-08-05T18:18:54.004Z,99645.56
2022-08-05T18:21:22.868Z,99644.81
2022-08-05T18:23:54.337Z,99645.72
2022-08-05T18:26:27.552Z,99651.78
2022-08-05T18:28:57.259Z,99672.69
2022-08-05T18:31:24.349Z,99676.91
2022-08-05T18:33:52.514Z,99669.69
2022-08-05T18:36:19.817Z,99659.84
2022-08-05T18:38:55.679Z,99655.84
2022-08-05T18:41:57.879Z,99657.06
2022-08-05T18:44:10.828Z,99662.66
2022-08-05T18:46:41.026Z,99677.69
2022-08-05T18:49:30.332Z,99701.53
2022-08-05T18:52:16.401Z,99716.47
2022-08-05T18:54:45.938Z,99722.50
2022-08-05T18:57:15.543Z,99739.94
2022-08-05T19:00:01.822Z,99762.75
2022-08-05T19:02:30.208Z,99747.53
2022-08-05T19:05:02.225Z,99747.53
2022-08-05T19:07:50.514Z,99741.22
2022-08-05T19:10:28.001Z,99729.06
2022-08-05T19:12:57.217Z,99727.53
2022-08-05T19:15:57.718Z,99728.75
2022-08-05T19:18:21.949Z,99731.66
2022-08-05T19:20:54.613Z,99736.22
2022-08-05T19:24:08.197Z,99737.16
2022-08-05T19:26:11.983Z,99736.38
2022-08-05T19:28:43.215Z,99724.34
2022-08-05T19:31:13.566Z,99720.19
2022-08-05T19:33:48.350Z,99724.53
2022-08-05T19:36:26.415Z,99716.75
2022-08-05T19:39:00.621Z,99721.09
2022-08-05T19:42:06.460Z,99741.28
2022-08-05T19:44:19.005Z,99730.84
2022-08-05T19:46:46.519Z,99740.59
2022-08-05T19:49:17.118Z,99757.41
2022-08-05T19:52:19.669Z,99763.75
2022-08-05T19:54:34.361Z,99770.75
2022-08-05T19:57:09.444Z,99784.09
2022-08-05T20:00:01.334Z,99806.03
2022-08-05T20:02:31.526Z,99812.06
2022-08-05T20:04:59.795Z,99826.44
2022-08-05T20:07:47.182Z,99838.13
2022-08-05T20:10:17.102Z,99858.53
2022-08-05T20:12:48.990Z,99866.72
2022-08-05T20:15:48.928Z,99889.75
2022-08-05T20:18:10.505Z,99887.09
2022-08-05T20:21:00.958Z,99870.56
2022-08-05T20:23:39.585Z,99838.09
2022-08-05T20:26:24.889Z,99825.09
2022-08-05T20:28:55.763Z,99832.44
2022-08-05T20:31:28.571Z,99837.03
2022-08-05T20:34:09.468Z,99837.97
2022-08-05T20:36:36.896Z,99831.06
2022-08-05T20:39:06.301Z,99826.88
2022-08-05T20:41:43.805Z,99837.53
2022-08-05T20:44:19.101Z,99828.75
2022-08-05T20:46:59.199Z,99824.47
2022-08-05T20:49:26.801Z,99829.84
2022-08-05T20:51:57.534Z,99832.50
2022-08-05T20:54:42.673Z,99836.84
2022-08-05T20:57:11.170Z,99842.91
2022-08-05T21:00:11.203Z,99843.00
2022-08-05T21:02:29.296Z,99841.13
2022-08-05T21:04:56.407Z,99834.09
2022-08-05T21:07:24.614Z,99841.19
2022-08-05T21:10:13.866Z,99829.75
2022-08-05T21:12:40.941Z,99842.91
2022-08-05T21:15:25.533Z,99838.41
2022-08-05T21:18:01.259Z,99846.25
2022-08-05T21:20:32.706Z,99857.59
2022-08-05T21:23:00.852Z,99861.13
2022-08-05T21:25:33.758Z,99870.66
2022-08-05T21:28:03.213Z,99875.13
2022-08-05T21:30:31.466Z,99876.06
2022-08-05T21:32:58.707Z,99868.25
2022-08-05T21:35:30.343Z,99873.41
2022-08-05T21:38:12.965Z,99883.81
2022-08-05T21:40:41.522Z,99891.84
2022-08-05T21:43:17.848Z,99890.13
2022-08-05T21:45:57.642Z,99890.03
2022-08-05T21:48:28.548Z,99882.28
2022-08-05T21:50:56.198Z,99881.59
2022-08-05T21:53:27.318Z,99890.47
2022-08-05T21:56:06.359Z,99882.69
2022-08-05T21:58:57.037Z,99883.63
2022-08-05T22:01:25.008Z,99882.84
2022-08-05T22:03:53.645Z,99875.06
2022-08-05T22:06:22.789Z,99873.50
2022-08-05T22:08:51.995Z,99869.16
2022-08-05T22:11:34.800Z,99871.09
2022-08-05T22:14:20.002Z,99880.06
2022-08-05T22:16:56.052Z,99863.66
2022-08-05T22:20:01.835Z,99878.84
2022-08-05T22:22:14.436Z,99889.25
2022-08-05T22:25:01.890Z,99883.19
2022-08-05T22:28:08.608Z,99884.03
2022-08-05T22:30:35.307Z,99889.31
2022-08-05T22:33:15.606Z,99897.34
2022-08-05T22:35:49.174Z,99894.56
2022-08-05T22:38:18.882Z,99897.44
2022-08-05T22:40:49.635Z,99896.72
2022-08-05T22:43:36.713Z,99893.63
2022-08-05T22:46:13.574Z,99899.22
2022-08-05T22:48:50.749Z,99896.78
2022-08-05T22:51:23.151Z,99901.50
2022-08-05T22:53:57.409Z,99900.91
2022-08-05T22:56:29.857Z,99906.25
2022-08-05T22:59:03.144Z,99916.06
2022-08-05T23:02:04.782Z,99914.47
2022-08-05T23:04:19.342Z,99917.22
2022-08-05T23:06:46.220Z,99910.22
2022-08-05T23:09:27.462Z,99918.28
2022-08-05T23:12:02.284Z,99928.00
2022-08-05T23:14:32.007Z,99936.66
2022-08-05T23:17:24.576Z,99939.50
2022-08-05T23:20:02.751Z,99943.38
2022-08-05T23:22:31.011Z,99939.16
2022-08-05T23:24:58.394Z,99950.88
2022-08-05T23:27:28.856Z,99951.09
2022-08-05T23:29:58.659Z,99958.31
2022-08-05T23:32:27.078Z,99956.69
2022-08-05T23:34:54.342Z,99956.16
2022-08-05T23:37:21.384Z,99976.59
2022-08-05T23:39:54.622Z,99983.72
2022-08-05T23:42:23.464Z,99977.66
2022-08-05T23:44:56.598Z,99969.88
2022-08-05T23:47:25.005Z,99984.88
2022-08-05T23:49:55.651Z,99973.59
2022-08-05T23:52:27.753Z,99976.28
2022-08-05T23:55:01.331Z,99980.72
2022-08-05T23:57:28.697Z,99979.78
